Observation data for Reese Center on 02/13/2018      Previous  Date  Next       Current Mesonet Observations  Soil Data  Daily Summary Page  Observations in Plain Language
KREE 130600Z 11011KT M00/M10 A3023 RMK A01 T10021102  RH  047%=      5-min Rain = 0
KREE 130605Z 11011KT M00/M10 A3023 RMK A01 T10031102  RH  048%=      5-min Rain = 0
KREE 130610Z 11011KT M00/M10 A3022 RMK A01 T10041102  RH  048%=      5-min Rain = 0
KREE 130615Z 12012KT M00/M10 A3023 RMK A01 T10041101  RH  049%=      5-min Rain = 0
KREE 130620Z 11011KT M00/M10 A3023 RMK A01 T10021101  RH  048%=      5-min Rain = 0
KREE 130625Z 11010KT M00/M10 A3023 RMK A01 T10041101  RH  048%=      5-min Rain = 0
KREE 130630Z 11009KT M01/M10 A3023 RMK A01 T10061101  RH  049%=      5-min Rain = 0
KREE 130635Z 12010KT M01/M10 A3023 RMK A01 T10071101  RH  050%=      5-min Rain = 0
KREE 130640Z 12010KT M01/M10 A3023 RMK A01 T10051100  RH  049%=      5-min Rain = 0
KREE 130645Z 12010KT M01/M10 A3023 RMK A01 T10051100  RH  049%=      5-min Rain = 0
KREE 130650Z 12010KT M00/M10 A3024 RMK A01 T10041100  RH  049%=      5-min Rain = 0
KREE 130655Z 12010KT M01/M10 A3024 RMK A01 T10051099  RH  049%=      5-min Rain = 0
KREE 130700Z 12010KT M01/M10 A3023 RMK A01 T10051099  RH  050%=      5-min Rain = 0
KREE 130705Z 12010KT M01/M10 A3023 RMK A01 T10051098  RH  050%=      5-min Rain = 0
KREE 130710Z 12010KT M01/M10 A3023 RMK A01 T10051098  RH  050%=      5-min Rain = 0
KREE 130715Z 11010KT M01/M10 A3023 RMK A01 T10061098  RH  050%=      5-min Rain = 0
KREE 130720Z 11009KT M01/M10 A3023 RMK A01 T10081097  RH  051%=      5-min Rain = 0
KREE 130725Z 11008KT M01/M10 A3023 RMK A01 T10101098  RH  052%=      5-min Rain = 0
KREE 130730Z 10008KT M01/M10 A3023 RMK A01 T10131098  RH  053%=      5-min Rain = 0
KREE 130735Z 09007KT M02/M10 A3023 RMK A01 T10161098  RH  054%=      5-min Rain = 0
KREE 130740Z 09008KT M02/M10 A3023 RMK A01 T10171097  RH  055%=      5-min Rain = 0
KREE 130745Z 10008KT M02/M10 A3023 RMK A01 T10161096  RH  055%=      5-min Rain = 0
KREE 130750Z 10008KT M02/M10 A3023 RMK A01 T10151095  RH  055%=      5-min Rain = 0
KREE 130755Z 09008KT M02/M10 A3023 RMK A01 T10171096  RH  055%=      5-min Rain = 0
KREE 130800Z 09007KT M02/M10 A3023 RMK A01 T10191096  RH  056%=      5-min Rain = 0
KREE 130805Z 10007KT M02/M10 A3023 RMK A01 T10221096  RH  057%=      5-min Rain = 0
KREE 130810Z 10007KT M02/M10 A3023 RMK A01 T10221095  RH  058%=      5-min Rain = 0
KREE 130815Z 09006KT M02/M10 A3023 RMK A01 T10231096  RH  058%=      5-min Rain = 0
KREE 130820Z 09007KT M03/M10 A3023 RMK A01 T10251095  RH  059%=      5-min Rain = 0
KREE 130825Z 10008KT M02/M09 A3023 RMK A01 T10221093  RH  059%=      5-min Rain = 0
KREE 130830Z 10006KT M02/M09 A3023 RMK A01 T10221094  RH  059%=      5-min Rain = 0
KREE 130835Z 10006KT M02/M09 A3023 RMK A01 T10241094  RH  060%=      5-min Rain = 0
KREE 130840Z 07005KT M03/M10 A3023 RMK A01 T10281104  RH  057%=      5-min Rain = 0
KREE 130845Z 07003KT M04/M11 A3023 RMK A01 T10401112  RH  058%=      5-min Rain = 0
KREE 130850Z 06003KT M05/M12 A3023 RMK A01 T10481115  RH  060%=      5-min Rain = 0
KREE 130855Z 06003KT M05/M11 A3023 RMK A01 T10501114  RH  061%=      5-min Rain = 0
KREE 130900Z 05003KT M05/M12 A3023 RMK A01 T10521117  RH  062%=      5-min Rain = 0
KREE 130905Z 06002KT M05/M12 A3023 RMK A01 T10541116  RH  062%=      5-min Rain = 0
KREE 130910Z 06002KT M05/M12 A3024 RMK A01 T10541115  RH  063%=      5-min Rain = 0
KREE 130915Z 06002KT M05/M12 A3023 RMK A01 T10541116  RH  063%=      5-min Rain = 0
KREE 130920Z 31002KT M06/M12 A3024 RMK A01 T10561118  RH  062%=      5-min Rain = 0
KREE 130925Z 31003KT M06/M12 A3024 RMK A01 T10611121  RH  063%=      5-min Rain = 0
KREE 130930Z 31002KT M06/M12 A3024 RMK A01 T10611121  RH  064%=      5-min Rain = 0
KREE 130935Z 31002KT M06/M12 A3024 RMK A01 T10611121  RH  063%=      5-min Rain = 0
KREE 130940Z 31002KT M06/M12 A3025 RMK A01 T10591123  RH  062%=      5-min Rain = 0
KREE 130945Z 33002KT M06/M12 A3025 RMK A01 T10581123  RH  061%=      5-min Rain = 0
KREE 130950Z 34003KT M06/M12 A3025 RMK A01 T10561121  RH  061%=      5-min Rain = 0
KREE 130955Z 34002KT M06/M12 A3024 RMK A01 T10561121  RH  061%=      5-min Rain = 0
KREE 131000Z 33002KT M06/M12 A3024 RMK A01 T10571123  RH  060%=      5-min Rain = 0
KREE 131005Z 34003KT M06/M12 A3024 RMK A01 T10601124  RH  061%=      5-min Rain = 0
KREE 131010Z 02003KT M06/M12 A3023 RMK A01 T10611123  RH  062%=      5-min Rain = 0
KREE 131015Z 04002KT M06/M12 A3023 RMK A01 T10601121  RH  063%=      5-min Rain = 0
KREE 131020Z 05002KT M06/M12 A3023 RMK A01 T10591120  RH  063%=      5-min Rain = 0
KREE 131025Z 04004KT M06/M12 A3023 RMK A01 T10601122  RH  063%=      5-min Rain = 0
KREE 131030Z 03004KT M06/M12 A3023 RMK A01 T10641124  RH  063%=      5-min Rain = 0
KREE 131035Z 04005KT M07/M12 A3023 RMK A01 T10651122  RH  065%=      5-min Rain = 0
KREE 131040Z 04005KT M06/M12 A3023 RMK A01 T10641122  RH  064%=      5-min Rain = 0
KREE 131045Z 05005KT M06/M12 A3023 RMK A01 T10601116  RH  066%=      5-min Rain = 0
KREE 131050Z 05004KT M06/M12 A3023 RMK A01 T10591118  RH  064%=      5-min Rain = 0
KREE 131055Z 06005KT M06/M11 A3023 RMK A01 T10571114  RH  065%=      5-min Rain = 0
KREE 131100Z 06004KT M06/M11 A3023 RMK A01 T10561113  RH  065%=      5-min Rain = 0
KREE 131105Z 05003KT M06/M12 A3023 RMK A01 T10571117  RH  064%=      5-min Rain = 0
KREE 131110Z 01005KT M06/M12 A3023 RMK A01 T10621119  RH  065%=      5-min Rain = 0
KREE 131115Z 01005KT M07/M12 A3024 RMK A01 T10651119  RH  066%=      5-min Rain = 0
KREE 131120Z 01005KT M07/M12 A3024 RMK A01 T10661118  RH  067%=      5-min Rain = 0
KREE 131125Z 00006KT M07/M12 A3024 RMK A01 T10661120  RH  066%=      5-min Rain = 0
KREE 131130Z 01005KT M07/M12 A3025 RMK A01 T10671122  RH  066%=      5-min Rain = 0
KREE 131135Z 02005KT M07/M12 A3025 RMK A01 T10671122  RH  066%=      5-min Rain = 0
KREE 131140Z 02005KT M07/M12 A3025 RMK A01 T10671122  RH  066%=      5-min Rain = 0
KREE 131145Z 01004KT M07/M12 A3026 RMK A01 T10661121  RH  066%=      5-min Rain = 0
KREE 131150Z 01005KT M07/M12 A3026 RMK A01 T10661121  RH  066%=      5-min Rain = 0
KREE 131155Z 02004KT M07/M12 A3025 RMK A01 T10671121  RH  066%=      5-min Rain = 0
KREE 131200Z 03004KT M07/M12 A3025 RMK A01 T10671120  RH  067%=      5-min Rain = 0
KREE 131205Z 04003KT M07/M12 A3025 RMK A01 T10661119  RH  067%=      5-min Rain = 0
KREE 131210Z 03003KT M07/M12 A3025 RMK A01 T10651118  RH  067%=      5-min Rain = 0
KREE 131215Z 36002KT M07/M12 A3026 RMK A01 T10661120  RH  066%=      5-min Rain = 0
KREE 131220Z 03001KT M07/M12 A3026 RMK A01 T10651119  RH  066%=      5-min Rain = 0
KREE 131225Z 06000KT M07/M12 A3026 RMK A01 T10651120  RH  066%=      5-min Rain = 0
KREE 131230Z 08000KT M07/M12 A3026 RMK A01 T10651120  RH  066%=      5-min Rain = 0
KREE 131235Z 09001KT M07/M12 A3026 RMK A01 T10651121  RH  065%=      5-min Rain = 0
KREE 131240Z 09001KT M07/M12 A3026 RMK A01 T10661122  RH  065%=      5-min Rain = 0
KREE 131245Z 11002KT M07/M12 A3025 RMK A01 T10661123  RH  065%=      5-min Rain = 0
KREE 131250Z 11002KT M07/M12 A3025 RMK A01 T10671123  RH  065%=      5-min Rain = 0
KREE 131255Z 10002KT M07/M12 A3025 RMK A01 T10661121  RH  066%=      5-min Rain = 0
KREE 131300Z 05002KT M06/M12 A3025 RMK A01 T10641119  RH  066%=      5-min Rain = 0
KREE 131305Z 03002KT M06/M12 A3026 RMK A01 T10631116  RH  067%=      5-min Rain = 0
KREE 131310Z 06002KT M06/M11 A3026 RMK A01 T10601113  RH  067%=      5-min Rain = 0
KREE 131315Z 07002KT M06/M11 A3026 RMK A01 T10581113  RH  066%=      5-min Rain = 0
KREE 131320Z 07001KT M06/M11 A3026 RMK A01 T10581114  RH  065%=      5-min Rain = 0
KREE 131325Z 03001KT M06/M11 A3027 RMK A01 T10581113  RH  066%=      5-min Rain = 0
KREE 131330Z 00002KT M06/M11 A3026 RMK A01 T10571111  RH  067%=      5-min Rain = 0
KREE 131335Z 34003KT M06/M11 A3027 RMK A01 T10571111  RH  067%=      5-min Rain = 0
KREE 131340Z 35002KT M06/M11 A3027 RMK A01 T10601114  RH  067%=      5-min Rain = 0
KREE 131345Z 02001KT M06/M11 A3027 RMK A01 T10601114  RH  067%=      5-min Rain = 0
KREE 131350Z 36001KT M06/M11 A3027 RMK A01 T10581113  RH  066%=      5-min Rain = 0
KREE 131355Z 33001KT M06/M11 A3027 RMK A01 T10551112  RH  065%=      5-min Rain = 0
KREE 131400Z 34001KT M05/M11 A3027 RMK A01 T10531113  RH  063%=      5-min Rain = 0
KREE 131405Z 01001KT M05/M11 A3027 RMK A01 T10521113  RH  063%=      5-min Rain = 0
KREE 131410Z 01001KT M05/M11 A3028 RMK A01 T10511111  RH  063%=      5-min Rain = 0
KREE 131415Z 01002KT M05/M11 A3028 RMK A01 T10471108  RH  063%=      5-min Rain = 0
KREE 131420Z 03002KT M05/M11 A3029 RMK A01 T10461106  RH  063%=      5-min Rain = 0
KREE 131425Z 03002KT M04/M10 A3029 RMK A01 T10421102  RH  064%=      5-min Rain = 0
KREE 131430Z 08002KT M04/M10 A3029 RMK A01 T10401101  RH  063%=      5-min Rain = 0
KREE 131435Z 09002KT M04/M10 A3029 RMK A01 T10381098  RH  064%=      5-min Rain = 0
KREE 131440Z 10002KT M04/M10 A3029 RMK A01 T10351096  RH  063%=      5-min Rain = 0
KREE 131445Z 09001KT M03/M10 A3029 RMK A01 T10331096  RH  062%=      5-min Rain = 0
KREE 131450Z 07001KT M03/M09 A3029 RMK A01 T10301094  RH  062%=      5-min Rain = 0
KREE 131455Z 11001KT M02/M09 A3029 RMK A01 T10231091  RH  060%=      5-min Rain = 0
KREE 131500Z 14000KT M02/M09 A303 RMK A01 T10161088  RH  059%=      5-min Rain = 0
KREE 131505Z 17000KT M01/M09 A3029 RMK A01 T10141087  RH  058%=      5-min Rain = 0
KREE 131510Z 18002KT M02/M09 A303 RMK A01 T10151086  RH  059%=      5-min Rain = 0
KREE 131515Z 15000KT M01/M08 A3031 RMK A01 T10131080  RH  061%=      5-min Rain = 0
KREE 131520Z 25001KT M01/M08 A3031 RMK A01 T10091078  RH  060%=      5-min Rain = 0
KREE 131525Z 17002KT M01/M08 A3031 RMK A01 T10061075  RH  061%=      5-min Rain = 0
KREE 131530Z 17003KT 00/M07 A3031 RMK A01 T00021065  RH  061%=      5-min Rain = 0
KREE 131535Z 17005KT 01/M06 A3031 RMK A01 T00091057  RH  062%=      5-min Rain = 0
KREE 131540Z 18006KT 01/M06 A3031 RMK A01 T00131056  RH  060%=      5-min Rain = 0
KREE 131545Z 18005KT 02/M06 A3031 RMK A01 T00161055  RH  060%=      5-min Rain = 0
KREE 131550Z 19006KT 02/M05 A3031 RMK A01 T00201051  RH  060%=      5-min Rain = 0
KREE 131555Z 20008KT 03/M05 A3031 RMK A01 T00251048  RH  059%=      5-min Rain = 0
KREE 131600Z 20009KT 03/M05 A3032 RMK A01 T00261047  RH  059%=      5-min Rain = 0
KREE 131605Z 20009KT 03/M05 A3032 RMK A01 T00311045  RH  058%=      5-min Rain = 0
KREE 131610Z 19009KT 04/M04 A3032 RMK A01 T00351043  RH  057%=      5-min Rain = 0
KREE 131615Z 19011KT 04/M04 A3031 RMK A01 T00401040  RH  057%=      5-min Rain = 0
KREE 131620Z 19010KT 04/M04 A3031 RMK A01 T00431038  RH  056%=      5-min Rain = 0
KREE 131625Z 20011KT 05/M04 A3031 RMK A01 T00461037  RH  056%=      5-min Rain = 0
KREE 131630Z 19011KT 05/M04 A3031 RMK A01 T00461035  RH  056%=      5-min Rain = 0
KREE 131635Z 19011KT 05/M03 A3031 RMK A01 T00471032  RH  057%=      5-min Rain = 0
KREE 131640Z 20012KT 05/M03 A3031 RMK A01 T00541029  RH  056%=      5-min Rain = 0
KREE 131645Z 20013G18KT 06/M03 A3031 RMK A01 T00551028  RH  056%=      5-min Rain = 0
KREE 131650Z 21012KT 06/M03 A3031 RMK A01 T00561029  RH  055%=      5-min Rain = 0
KREE 131655Z 20011KT 06/M03 A3031 RMK A01 T00561030  RH  055%=      5-min Rain = 0
KREE 131700Z 20010KT 06/M03 A3031 RMK A01 T00581029  RH  054%=      5-min Rain = 0
KREE 131705Z 20009KT 06/M03 A3031 RMK A01 T00601030  RH  053%=      5-min Rain = 0
KREE 131710Z 20007G14KT 07/M03 A3031 RMK A01 T00671028  RH  052%=      5-min Rain = 0
KREE 131715Z 21010KT 07/M03 A3031 RMK A01 T00701026  RH  051%=      5-min Rain = 0
KREE 131720Z 20009G15KT 07/M02 A3031 RMK A01 T00741021  RH  051%=      5-min Rain = 0
KREE 131725Z 21010G15KT 08/M02 A3031 RMK A01 T00781017  RH  052%=      5-min Rain = 0
KREE 131730Z 21009G14KT 08/M02 A3031 RMK A01 T00821015  RH  051%=      5-min Rain = 0
KREE 131735Z 20010KT 08/M01 A303 RMK A01 T00831012  RH  052%=      5-min Rain = 0
KREE 131740Z 21010KT 09/M01 A303 RMK A01 T00861010  RH  051%=      5-min Rain = 0
KREE 131745Z 20010KT 09/M01 A303 RMK A01 T00881010  RH  051%=      5-min Rain = 0
KREE 131750Z 21010KT 09/M01 A303 RMK A01 T00871011  RH  051%=      5-min Rain = 0
KREE 131755Z 18011KT 09/M01 A303 RMK A01 T00891010  RH  051%=      5-min Rain = 0
KREE 131800Z 18011G16KT 09/M01 A3029 RMK A01 T00901008  RH  051%=      5-min Rain = 0
KREE 131805Z 20010G15KT 09/M00 A3029 RMK A01 T00901003  RH  053%=      5-min Rain = 0
KREE 131810Z 19011G16KT 09/00 A3029 RMK A01 T00910001  RH  054%=      5-min Rain = 0
KREE 131815Z 20008KT 09/00 A3029 RMK A01 T00920002  RH  054%=      5-min Rain = 0
KREE 131820Z 18011KT 10/00 A3029 RMK A01 T00960004  RH  053%=      5-min Rain = 0
KREE 131825Z 19010KT 10/00 A3029 RMK A01 T00950003  RH  054%=      5-min Rain = 0
KREE 131830Z 18010KT 10/00 A3029 RMK A01 T00960004  RH  053%=      5-min Rain = 0
KREE 131835Z 20010KT 10/00 A3029 RMK A01 T00970003  RH  052%=      5-min Rain = 0
KREE 131840Z 21009G14KT 10/00 A3029 RMK A01 T00970003  RH  053%=      5-min Rain = 0
KREE 131845Z 19009KT 10/01 A3028 RMK A01 T01010005  RH  052%=      5-min Rain = 0
KREE 131850Z 20010KT 11/01 A3028 RMK A01 T01050007  RH  051%=      5-min Rain = 0
KREE 131855Z 19010KT 11/01 A3028 RMK A01 T01050007  RH  051%=      5-min Rain = 0
KREE 131900Z 19011G18KT 11/01 A3028 RMK A01 T01070007  RH  051%=      5-min Rain = 0
KREE 131905Z 19010G15KT 11/01 A3028 RMK A01 T01090007  RH  050%=      5-min Rain = 0
KREE 131910Z 20011G16KT 11/01 A3028 RMK A01 T01090007  RH  050%=      5-min Rain = 0
KREE 131915Z 19010KT 11/01 A3027 RMK A01 T01100006  RH  049%=      5-min Rain = 0
KREE 131920Z 19010KT 11/01 A3027 RMK A01 T01140006  RH  048%=      5-min Rain = 0
KREE 131925Z 19010G15KT 12/01 A3027 RMK A01 T01150005  RH  047%=      5-min Rain = 0
KREE 131930Z 19010G17KT 12/01 A3027 RMK A01 T01150005  RH  047%=      5-min Rain = 0
KREE 131935Z 20010G15KT 12/01 A3027 RMK A01 T01180006  RH  047%=      5-min Rain = 0
KREE 131940Z 20010G15KT 12/01 A3026 RMK A01 T01200006  RH  046%=      5-min Rain = 0
KREE 131945Z 20012KT 12/01 A3026 RMK A01 T01230006  RH  045%=      5-min Rain = 0
KREE 131950Z 20011G16KT 13/01 A3026 RMK A01 T01250006  RH  044%=      5-min Rain = 0
KREE 131955Z 19012KT 13/01 A3025 RMK A01 T01280005  RH  043%=      5-min Rain = 0
KREE 132000Z 20012KT 13/01 A3025 RMK A01 T01310005  RH  042%=      5-min Rain = 0
KREE 132005Z 18010KT 13/01 A3025 RMK A01 T01320006  RH  042%=      5-min Rain = 0
KREE 132010Z 19013G18KT 13/00 A3025 RMK A01 T01340004  RH  041%=      5-min Rain = 0
KREE 132015Z 20009G16KT 14/01 A3024 RMK A01 T01350005  RH  041%=      5-min Rain = 0
KREE 132020Z 19010KT 14/01 A3024 RMK A01 T01380005  RH  041%=      5-min Rain = 0
KREE 132025Z 18011KT 14/01 A3024 RMK A01 T01370006  RH  041%=      5-min Rain = 0
KREE 132030Z 18011KT 14/01 A3023 RMK A01 T01400007  RH  041%=      5-min Rain = 0
KREE 132035Z 17011KT 14/01 A3023 RMK A01 T01400008  RH  041%=      5-min Rain = 0
KREE 132040Z 17010KT 14/01 A3023 RMK A01 T01410008  RH  041%=      5-min Rain = 0
KREE 132045Z 17010KT 14/01 A3023 RMK A01 T01440009  RH  040%=      5-min Rain = 0
KREE 132050Z 16011KT 14/01 A3023 RMK A01 T01430009  RH  040%=      5-min Rain = 0
KREE 132055Z 17010KT 15/01 A3023 RMK A01 T01460009  RH  040%=      5-min Rain = 0
KREE 132100Z 19008G13KT 15/01 A3023 RMK A01 T01450009  RH  040%=      5-min Rain = 0
KREE 132105Z 16011KT 15/01 A3023 RMK A01 T01450009  RH  040%=      5-min Rain = 0
KREE 132110Z 17009KT 14/01 A3023 RMK A01 T01440008  RH  040%=      5-min Rain = 0
KREE 132115Z 18008KT 15/01 A3024 RMK A01 T01450009  RH  040%=      5-min Rain = 0
KREE 132120Z 18011G17KT 14/01 A3024 RMK A01 T01440008  RH  040%=      5-min Rain = 0
KREE 132125Z 18010G15KT 15/01 A3024 RMK A01 T01480008  RH  039%=      5-min Rain = 0
KREE 132130Z 17011KT 15/01 A3024 RMK A01 T01480006  RH  038%=      5-min Rain = 0
KREE 132135Z 18010KT 15/01 A3024 RMK A01 T01460006  RH  039%=      5-min Rain = 0
KREE 132140Z 17010KT 15/01 A3024 RMK A01 T01450005  RH  039%=      5-min Rain = 0
KREE 132145Z 17010KT 15/01 A3024 RMK A01 T01470005  RH  038%=      5-min Rain = 0
KREE 132150Z 19009KT 15/00 A3023 RMK A01 T01480004  RH  038%=      5-min Rain = 0
KREE 132155Z 19010KT 15/00 A3023 RMK A01 T01470004  RH  038%=      5-min Rain = 0
KREE 132200Z 18009KT 15/00 A3023 RMK A01 T01490004  RH  038%=      5-min Rain = 0
KREE 132205Z 19011KT 15/01 A3023 RMK A01 T01480005  RH  038%=      5-min Rain = 0
KREE 132210Z 17011G16KT 15/01 A3023 RMK A01 T01480005  RH  038%=      5-min Rain = 0
KREE 132215Z 17011KT 15/01 A3023 RMK A01 T01480005  RH  038%=      5-min Rain = 0
KREE 132220Z 17009KT 15/01 A3023 RMK A01 T01490005  RH  038%=      5-min Rain = 0
KREE 132225Z 18009KT 15/00 A3022 RMK A01 T01510004  RH  037%=      5-min Rain = 0
KREE 132230Z 18009KT 15/00 A3022 RMK A01 T01510004  RH  037%=      5-min Rain = 0
KREE 132235Z 18009KT 15/00 A3023 RMK A01 T01500004  RH  037%=      5-min Rain = 0
KREE 132240Z 18009KT 15/00 A3023 RMK A01 T01520004  RH  037%=      5-min Rain = 0
KREE 132245Z 19009G14KT 15/00 A3023 RMK A01 T01490004  RH  037%=      5-min Rain = 0
KREE 132250Z 19009KT 15/01 A3023 RMK A01 T01500005  RH  037%=      5-min Rain = 0
KREE 132255Z 19008KT 15/01 A3023 RMK A01 T01500006  RH  038%=      5-min Rain = 0
KREE 132300Z 19008KT 15/01 A3023 RMK A01 T01500006  RH  038%=      5-min Rain = 0
KREE 132305Z 19008KT 15/01 A3023 RMK A01 T01490006  RH  038%=      5-min Rain = 0
KREE 132310Z 19009KT 15/01 A3023 RMK A01 T01500007  RH  038%=      5-min Rain = 0
KREE 132315Z 17009KT 15/01 A3023 RMK A01 T01500008  RH  038%=      5-min Rain = 0
KREE 132320Z 17009KT 15/01 A3023 RMK A01 T01500009  RH  039%=      5-min Rain = 0
KREE 132325Z 17009KT 15/01 A3023 RMK A01 T01480011  RH  040%=      5-min Rain = 0
KREE 132330Z 17010KT 15/01 A3023 RMK A01 T01460013  RH  041%=      5-min Rain = 0
KREE 132335Z 17008KT 15/01 A3023 RMK A01 T01460013  RH  041%=      5-min Rain = 0
KREE 132340Z 17008KT 15/02 A3023 RMK A01 T01470015  RH  041%=      5-min Rain = 0
KREE 132345Z 18009KT 15/02 A3023 RMK A01 T01460018  RH  042%=      5-min Rain = 0
KREE 132350Z 17008KT 15/02 A3023 RMK A01 T01460018  RH  043%=      5-min Rain = 0
KREE 132355Z 18007KT 14/02 A3023 RMK A01 T01430018  RH  043%=      5-min Rain = 0
KREE 140000Z 17006KT 14/02 A3023 RMK A01 T01400017  RH  044%=      5-min Rain = 0
KREE 140005Z 17007KT 14/02 A3023 RMK A01 T01360017  RH  045%=      5-min Rain = 0
KREE 140010Z 16007KT 13/02 A3023 RMK A01 T01330018  RH  046%=      5-min Rain = 0
KREE 140015Z 17007KT 13/02 A3023 RMK A01 T01300018  RH  047%=      5-min Rain = 0
KREE 140020Z 17007KT 13/02 A3023 RMK A01 T01270016  RH  048%=      5-min Rain = 0
KREE 140025Z 18006KT 12/02 A3023 RMK A01 T01230016  RH  049%=      5-min Rain = 0
KREE 140030Z 18005KT 12/02 A3023 RMK A01 T01190017  RH  050%=      5-min Rain = 0
KREE 140035Z 18004KT 12/02 A3023 RMK A01 T01180017  RH  050%=      5-min Rain = 0
KREE 140040Z 18004KT 12/02 A3023 RMK A01 T01160018  RH  051%=      5-min Rain = 0
KREE 140045Z 16005KT 12/02 A3023 RMK A01 T01150016  RH  051%=      5-min Rain = 0
KREE 140050Z 16005KT 11/02 A3024 RMK A01 T01100015  RH  052%=      5-min Rain = 0
KREE 140055Z 16006KT 11/01 A3024 RMK A01 T01080014  RH  053%=      5-min Rain = 0
KREE 140100Z 16006KT 11/01 A3024 RMK A01 T01050013  RH  053%=      5-min Rain = 0
KREE 140105Z 15006KT 10/01 A3024 RMK A01 T01030012  RH  054%=      5-min Rain = 0
KREE 140110Z 15007KT 10/01 A3024 RMK A01 T01000010  RH  054%=      5-min Rain = 0
KREE 140115Z 15007KT 10/01 A3024 RMK A01 T00970008  RH  055%=      5-min Rain = 0
KREE 140120Z 15008KT 09/01 A3024 RMK A01 T00930007  RH  056%=      5-min Rain = 0
KREE 140125Z 15008KT 09/01 A3024 RMK A01 T00880005  RH  057%=      5-min Rain = 0
KREE 140130Z 16009KT 09/00 A3024 RMK A01 T00850004  RH  058%=      5-min Rain = 0
KREE 140135Z 16009KT 08/00 A3024 RMK A01 T00810003  RH  058%=      5-min Rain = 0
KREE 140140Z 16009KT 08/00 A3024 RMK A01 T00790002  RH  059%=      5-min Rain = 0
KREE 140145Z 16009KT 08/00 A3024 RMK A01 T00780002  RH  059%=      5-min Rain = 0
KREE 140150Z 17009KT 08/00 A3024 RMK A01 T00780001  RH  059%=      5-min Rain = 0
KREE 140155Z 17008KT 08/00 A3025 RMK A01 T00760002  RH  060%=      5-min Rain = 0
KREE 140200Z 17008KT 08/00 A3025 RMK A01 T00750004  RH  061%=      5-min Rain = 0
KREE 140205Z 17008KT 08/00 A3024 RMK A01 T00760004  RH  061%=      5-min Rain = 0
KREE 140210Z 17007KT 07/00 A3024 RMK A01 T00740003  RH  061%=      5-min Rain = 0
KREE 140215Z 17007KT 07/00 A3024 RMK A01 T00720003  RH  062%=      5-min Rain = 0
KREE 140220Z 17007KT 07/00 A3025 RMK A01 T00730004  RH  062%=      5-min Rain = 0
KREE 140225Z 17006KT 08/00 A3025 RMK A01 T00750004  RH  062%=      5-min Rain = 0
KREE 140230Z 17004KT 07/01 A3025 RMK A01 T00740006  RH  062%=      5-min Rain = 0
KREE 140235Z 17004KT 08/01 A3025 RMK A01 T00760007  RH  062%=      5-min Rain = 0
KREE 140240Z 17005KT 08/01 A3025 RMK A01 T00790008  RH  062%=      5-min Rain = 0
KREE 140245Z 18005KT 08/01 A3025 RMK A01 T00820008  RH  060%=      5-min Rain = 0
KREE 140250Z 18006KT 08/01 A3025 RMK A01 T00830010  RH  061%=      5-min Rain = 0
KREE 140255Z 18005KT 08/01 A3025 RMK A01 T00830010  RH  061%=      5-min Rain = 0
KREE 140300Z 18005KT 08/01 A3025 RMK A01 T00800009  RH  061%=      5-min Rain = 0
KREE 140305Z 18005KT 08/01 A3025 RMK A01 T00770008  RH  062%=      5-min Rain = 0
KREE 140310Z 18004KT 08/01 A3025 RMK A01 T00760008  RH  063%=      5-min Rain = 0
KREE 140315Z 17004KT 08/01 A3025 RMK A01 T00750008  RH  063%=      5-min Rain = 0
KREE 140320Z 18005KT 07/01 A3025 RMK A01 T00720006  RH  064%=      5-min Rain = 0
KREE 140325Z 18005KT 07/01 A3025 RMK A01 T00710007  RH  065%=      5-min Rain = 0
KREE 140330Z 17006KT 07/01 A3025 RMK A01 T00710008  RH  065%=      5-min Rain = 0
KREE 140335Z 17006KT 07/01 A3025 RMK A01 T00710007  RH  064%=      5-min Rain = 0
KREE 140340Z 17006KT 07/01 A3025 RMK A01 T00710005  RH  064%=      5-min Rain = 0
KREE 140345Z 17007KT 07/00 A3025 RMK A01 T00690003  RH  064%=      5-min Rain = 0
KREE 140350Z 17007KT 07/00 A3025 RMK A01 T00650002  RH  065%=      5-min Rain = 0
KREE 140355Z 17007KT 06/00 A3025 RMK A01 T00620002  RH  066%=      5-min Rain = 0
KREE 140400Z 18007KT 06/00 A3025 RMK A01 T00620002  RH  066%=      5-min Rain = 0
KREE 140405Z 19007KT 06/M00 A3025 RMK A01 T00591001  RH  066%=      5-min Rain = 0
KREE 140410Z 20007KT 05/M00 A3025 RMK A01 T00531002  RH  068%=      5-min Rain = 0
KREE 140415Z 20006KT 06/00 A3025 RMK A01 T00560002  RH  069%=      5-min Rain = 0
KREE 140420Z 20006KT 06/00 A3025 RMK A01 T00580001  RH  067%=      5-min Rain = 0
KREE 140425Z 21005KT 06/M00 A3025 RMK A01 T00571002  RH  067%=      5-min Rain = 0
KREE 140430Z 21006KT 06/00 A3025 RMK A01 T00560001  RH  069%=      5-min Rain = 0
KREE 140435Z 21007KT 06/00 A3025 RMK A01 T00580002  RH  068%=      5-min Rain = 0
KREE 140440Z 21007KT 06/00 A3025 RMK A01 T00570002  RH  069%=      5-min Rain = 0
KREE 140445Z 21008KT 06/00 A3026 RMK A01 T00590004  RH  069%=      5-min Rain = 0
KREE 140450Z 22007KT 06/00 A3025 RMK A01 T00600001  RH  067%=      5-min Rain = 0
KREE 140455Z 22006KT 06/M00 A3025 RMK A01 T00571002  RH  067%=      5-min Rain = 0
KREE 140500Z 21007KT 06/M00 A3025 RMK A01 T00561002  RH  067%=      5-min Rain = 0
KREE 140505Z 21007KT 06/M00 A3025 RMK A01 T00571001  RH  067%=      5-min Rain = 0
KREE 140510Z 21007KT 06/00 A3025 RMK A01 T005800-0  RH  067%=      5-min Rain = 0
KREE 140515Z 21007KT 06/00 A3025 RMK A01 T005900-0  RH  066%=      5-min Rain = 0
KREE 140520Z 20008KT 06/M00 A3024 RMK A01 T00571003  RH  066%=      5-min Rain = 0
KREE 140525Z 20007KT 06/M00 A3024 RMK A01 T00561003  RH  066%=      5-min Rain = 0
KREE 140530Z 20006KT 06/M00 A3024 RMK A01 T00561003  RH  067%=      5-min Rain = 0
KREE 140535Z 20007KT 06/M00 A3024 RMK A01 T00571001  RH  067%=      5-min Rain = 0
KREE 140540Z 21008KT 06/00 A3024 RMK A01 T00640004  RH  066%=      5-min Rain = 0
KREE 140545Z 20009KT 07/01 A3024 RMK A01 T00700006  RH  064%=      5-min Rain = 0
KREE 140550Z 20010KT 08/01 A3024 RMK A01 T00760007  RH  062%=      5-min Rain = 0
KREE 140555Z 20008KT 08/01 A3024 RMK A01 T00750006  RH  062%=      5-min Rain = 0

Page generated in 0.0089 seconds.